KMIB/MIB METAR and TAF weather

Enter ICAO airport designator
Station Type Date Time Source
KMIB METAR 2020/07/07 23:56 UTC NOAA

KMIB 072356Z AUTO 14014KT 10SM BKN060 BKN170 26/16 A2977 RMK AO2 SLP081 T02630162 10285 20263 57017 $


Station Type Date Time Source
KMIB Decoded METAR 2020/07/07 23:56 UTC NOAA

Minot Air Force Base, ND, United States (KMIB) 48-25N 101-21W
Jul 07, 2020 - 07:56 PM EDT / 2020.07.07 2356 UTC
Wind: from the SE (140 degrees) at 16 MPH (14 KT):0
Visibility: 10 mile(s):0
Sky conditions: mostly cloudy
Temperature: 79.3 F (26.3 C)
Dew Point: 61.2 F (16.2 C)
Relative Humidity: 53%
Pressure (altimeter): 29.77 in. Hg (1008 hPa)
Pressure tendency: 0.05 inches (1.7 hPa) lower than three hours ago
ob: KMIB 072356Z AUTO 14014KT 10SM BKN060 BKN170 26/16 A2977 RMK AO2 SLP081 T02630162 10285 20263 57017
cycle: 0

Station Type Date Time Source
KMIB TAF 2020/07/07 17:04 UTC NOAA

TAF KMIB 071700Z 0717/0823 13009KT 9999 FEW060 QNH2980INS
BECMG 0720/0721 13012G18KT 9999 FEW060 QNH2964INS
BECMG 0802/0803 13020G30KT 9999 SCT040 BKN060 510003 QNH2962INS
TEMPO 0803/0805 17025G35KT 6000 -TSRA SCT040CB BKN060
BECMG 0804/0805 19030G40KT 3200 TSRA OVC040CB QNH2958INS
TEMPO 0805/0809 20040G55KT 1600 +TSRA SCT010CB OVC040
BECMG 0808/0809 18010G15KT 8000 SHRA BKN020 QNH2959INS
BECMG 0811/0812 27012KT 9999 NSW SCT020 510202 QNH2967INS
BECMG 0814/0815 27015G20KT 9999 SKC QNH2966INS TX28/0722Z TN22/0811Z

Example: see airport list